sensor_id;sensor_type;location;lat;lon;timestamp;pressure;altitude;pressure_sealevel;temperature;humidity
75646;BME280;64237;52.438;13.240;2023-08-12T00:00:31;101544.47;;;16.00;100.00
75646;BME280;64237;52.438;13.240;2023-08-12T00:02:57;101555.06;;;16.03;100.00
75646;BME280;64237;52.438;13.240;2023-08-12T00:05:23;101556.72;;;15.99;100.00
75646;BME280;64237;52.438;13.240;2023-08-12T00:07:49;101545.56;;;15.99;100.00
75646;BME280;64237;52.438;13.240;2023-08-12T00:10:14;101548.59;;;15.97;100.00
75646;BME280;64237;52.438;13.240;2023-08-12T00:12:40;101554.44;;;15.96;100.00
75646;BME280;64237;52.438;13.240;2023-08-12T00:15:07;101542.69;;;15.94;100.00
75646;BME280;64237;52.438;13.240;2023-08-12T00:17:33;101547.44;;;15.93;100.00
75646;BME280;64237;52.438;13.240;2023-08-12T00:20:00;101551.06;;;15.94;100.00
75646;BME280;64237;52.438;13.240;2023-08-12T00:22:25;101547.19;;;15.95;100.00
75646;BME280;64237;52.438;13.240;2023-08-12T00:24:51;101540.41;;;15.91;100.00
75646;BME280;64237;52.438;13.240;2023-08-12T00:27:17;101551.06;;;15.94;100.00
75646;BME280;64237;52.438;13.240;2023-08-12T00:29:42;101541.25;;;15.91;100.00
75646;BME280;64237;52.438;13.240;2023-08-12T00:32:08;101540.69;;;15.89;100.00
75646;BME280;64237;52.438;13.240;2023-08-12T00:34:34;101540.16;;;15.92;100.00
75646;BME280;64237;52.438;13.240;2023-08-12T00:36:59;101536.78;;;15.90;100.00
75646;BME280;64237;52.438;13.240;2023-08-12T00:39:25;101529.84;;;15.93;100.00
75646;BME280;64237;52.438;13.240;2023-08-12T00:41:50;101533.81;;;15.97;100.00
75646;BME280;64237;52.438;13.240;2023-08-12T00:44:15;101530.19;;;15.96;100.00
75646;BME280;64237;52.438;13.240;2023-08-12T00:46:42;101519.84;;;15.97;100.00
75646;BME280;64237;52.438;13.240;2023-08-12T00:49:07;101520.69;;;15.97;100.00
75646;BME280;64237;52.438;13.240;2023-08-12T00:51:34;101519.84;;;15.97;100.00
75646;BME280;64237;52.438;13.240;2023-08-12T00:54:02;101506.47;;;15.99;100.00
75646;BME280;64237;52.438;13.240;2023-08-12T00:56:29;101517.66;;;15.99;100.00
75646;BME280;64237;52.438;13.240;2023-08-12T00:58:55;101508.16;;;16.00;100.00
75646;BME280;64237;52.438;13.240;2023-08-12T01:01:21;101506.47;;;15.99;100.00
75646;BME280;64237;52.438;13.240;2023-08-12T01:03:46;101500.94;;;16.04;100.00
75646;BME280;64237;52.438;13.240;2023-08-12T01:06:12;101496.47;;;16.03;100.00
75646;BME280;64237;52.438;13.240;2023-08-12T01:08:38;101497.00;;;16.00;100.00
75646;BME280;64237;52.438;13.240;2023-08-12T01:14:07;101494.22;;;16.00;100.00
75646;BME280;64237;52.438;13.240;2023-08-12T01:16:37;101489.22;;;16.02;100.00
75646;BME280;64237;52.438;13.240;2023-08-12T01:19:06;101494.47;;;15.98;100.00
75646;BME280;64237;52.438;13.240;2023-08-12T01:21:36;101488.06;;;15.98;100.00
75646;BME280;64237;52.438;13.240;2023-08-12T01:24:06;101494.16;;;15.95;100.00
75646;BME280;64237;52.438;13.240;2023-08-12T01:26:31;101487.41;;;15.91;100.00
75646;BME280;64237;52.438;13.240;2023-08-12T01:28:57;101482.31;;;15.88;100.00
75646;BME280;64237;52.438;13.240;2023-08-12T01:31:32;101484.00;;;15.89;100.00
75646;BME280;64237;52.438;13.240;2023-08-12T01:34:08;101478.69;;;15.87;100.00
75646;BME280;64237;52.438;13.240;2023-08-12T01:36:38;101471.16;;;15.88;100.00
75646;BME280;64237;52.438;13.240;2023-08-12T01:39:06;101470.06;;;15.89;100.00
75646;BME280;64237;52.438;13.240;2023-08-12T01:41:34;101474.53;;;15.90;100.00
75646;BME280;64237;52.438;13.240;2023-08-12T01:44:01;101468.31;;;15.83;100.00
75646;BME280;64237;52.438;13.240;2023-08-12T01:46:27;101469.16;;;15.83;100.00
75646;BME280;64237;52.438;13.240;2023-08-12T01:48:52;101466.09;;;15.85;100.00
75646;BME280;64237;52.438;13.240;2023-08-12T01:51:18;101464.16;;;15.85;100.00
75646;BME280;64237;52.438;13.240;2023-08-12T01:53:43;101460.53;;;15.85;100.00
75646;BME280;64237;52.438;13.240;2023-08-12T01:56:09;101460.00;;;15.88;100.00
75646;BME280;64237;52.438;13.240;2023-08-12T01:58:34;101455.53;;;15.87;100.00
75646;BME280;64237;52.438;13.240;2023-08-12T02:01:00;101457.78;;;15.90;100.00
75646;BME280;64237;52.438;13.240;2023-08-12T02:03:25;101450.53;;;15.89;100.00
75646;BME280;64237;52.438;13.240;2023-08-12T02:05:50;101441.06;;;15.90;100.00
75646;BME280;64237;52.438;13.240;2023-08-12T02:08:16;101441.91;;;15.90;100.00
75646;BME280;64237;52.438;13.240;2023-08-12T02:10:41;101445.28;;;15.92;100.00
75646;BME280;64237;52.438;13.240;2023-08-12T02:13:06;101443.91;;;15.95;100.00
75646;BME280;64237;52.438;13.240;2023-08-12T02:15:32;101436.38;;;15.95;100.00
75646;BME280;64237;52.438;13.240;2023-08-12T02:17:57;101438.91;;;15.97;100.00
75646;BME280;64237;52.438;13.240;2023-08-12T02:20:24;101439.16;;;15.95;100.00
75646;BME280;64237;52.438;13.240;2023-08-12T02:22:49;101430.53;;;15.97;100.00
75646;BME280;64237;52.438;13.240;2023-08-12T02:25:15;101430.00;;;16.00;100.00
75646;BME280;64237;52.438;13.240;2023-08-12T02:27:40;101414.97;;;16.01;100.00
75646;BME280;64237;52.438;13.240;2023-08-12T02:30:06;101420.53;;;16.01;100.00
75646;BME280;64237;52.438;13.240;2023-08-12T02:32:32;101414.97;;;16.01;100.00
75646;BME280;64237;52.438;13.240;2023-08-12T02:35:00;101414.41;;;16.04;100.00
75646;BME280;64237;52.438;13.240;2023-08-12T02:37:26;101414.41;;;16.04;100.00
75646;BME280;64237;52.438;13.240;2023-08-12T02:39:51;101419.97;;;16.04;100.00
75646;BME280;64237;52.438;13.240;2023-08-12T02:42:16;101414.41;;;16.04;100.00
75646;BME280;64237;52.438;13.240;2023-08-12T02:44:41;101409.38;;;16.01;100.00
75646;BME280;64237;52.438;13.240;2023-08-12T02:47:07;101405.75;;;16.05;100.00
75646;BME280;64237;52.438;13.240;2023-08-12T02:49:32;101407.47;;;16.06;100.00
75646;BME280;64237;52.438;13.240;2023-08-12T02:51:57;101402.72;;;16.07;100.00
75646;BME280;64237;52.438;13.240;2023-08-12T02:54:23;101403.56;;;16.07;100.00
75646;BME280;64237;52.438;13.240;2023-08-12T02:56:50;101401.03;;;16.06;100.00
75646;BME280;64237;52.438;13.240;2023-08-12T02:59:15;101403.81;;;16.06;100.00
75646;BME280;64237;52.438;13.240;2023-08-12T03:01:42;101403.78;;;16.01;100.00
75646;BME280;64237;52.438;13.240;2023-08-12T03:04:07;101398.72;;;15.98;100.00
75646;BME280;64237;52.438;13.240;2023-08-12T03:06:32;101409.56;;;15.94;100.00
75646;BME280;64237;52.438;13.240;2023-08-12T03:08:58;101402.38;;;15.98;100.00
75646;BME280;64237;52.438;13.240;2023-08-12T03:11:24;101391.47;;;15.97;100.00
75646;BME280;64237;52.438;13.240;2023-08-12T03:13:49;101389.19;;;15.94;100.00
75646;BME280;64237;52.438;13.240;2023-08-12T03:16:14;101385.28;;;15.95;100.00
75646;BME280;64237;52.438;13.240;2023-08-12T03:18:40;101397.81;;;15.92;100.00
75646;BME280;64237;52.438;13.240;2023-08-12T03:21:07;101386.09;;;15.90;100.00
75646;BME280;64237;52.438;13.240;2023-08-12T03:23:33;101380.44;;;15.85;100.00
75646;BME280;64237;52.438;13.240;2023-08-12T03:25:59;101376.81;;;15.85;100.00
75646;BME280;64237;52.438;13.240;2023-08-12T03:28:24;101375.63;;;15.81;100.00
75646;BME280;64237;52.438;13.240;2023-08-12T03:30:53;101368.41;;;15.80;100.00
75646;BME280;64237;52.438;13.240;2023-08-12T03:33:18;101369.78;;;15.77;100.00
75646;BME280;64237;52.438;13.240;2023-08-12T03:35:50;101370.59;;;15.77;100.00
75646;BME280;64237;52.438;13.240;2023-08-12T03:38:15;101378.41;;;15.75;100.00
75646;BME280;64237;52.438;13.240;2023-08-12T03:40:41;101384.50;;;15.72;100.00
75646;BME280;64237;52.438;13.240;2023-08-12T03:43:06;101373.84;;;15.69;100.00
75646;BME280;64237;52.438;13.240;2023-08-12T03:45:33;101368.28;;;15.69;100.00
75646;BME280;64237;52.438;13.240;2023-08-12T03:47:58;101361.00;;;15.68;100.00
75646;BME280;64237;52.438;13.240;2023-08-12T03:50:23;101367.69;;;15.67;100.00
75646;BME280;64237;52.438;13.240;2023-08-12T03:52:49;101358.75;;;15.65;100.00
75646;BME280;64237;52.438;13.240;2023-08-12T03:55:14;101348.16;;;15.67;100.00
75646;BME280;64237;52.438;13.240;2023-08-12T03:57:40;101355.94;;;15.65;100.00
75646;BME280;64237;52.438;13.240;2023-08-12T04:00:05;101352.06;;;15.66;100.00
75646;BME280;64237;52.438;13.240;2023-08-12T04:02:33;101352.56;;;15.63;100.00
75646;BME280;64237;52.438;13.240;2023-08-12T04:04:58;101346.47;;;15.66;100.00
75646;BME280;64237;52.438;13.240;2023-08-12T04:07:23;101343.69;;;15.66;100.00
75646;BME280;64237;52.438;13.240;2023-08-12T04:09:49;101352.06;;;15.66;100.00
75646;BME280;64237;52.438;13.240;2023-08-12T04:12:14;101353.44;;;15.64;100.00
75646;BME280;64237;52.438;13.240;2023-08-12T04:14:40;101352.06;;;15.66;100.00
75646;BME280;64237;52.438;13.240;2023-08-12T04:17:06;101352.06;;;15.66;100.00
75646;BME280;64237;52.438;13.240;2023-08-12T04:19:31;101354.38;;;15.74;100.00
75646;BME280;64237;52.438;13.240;2023-08-12T04:21:56;101353.31;;;15.81;100.00
75646;BME280;64237;52.438;13.240;2023-08-12T04:24:22;101352.28;;;15.87;100.00
75646;BME280;64237;52.438;13.240;2023-08-12T04:26:47;101353.44;;;15.91;100.00
75646;BME280;64237;52.438;13.240;2023-08-12T04:29:12;101345.69;;;15.98;100.00
75646;BME280;64237;52.438;13.240;2023-08-12T04:31:38;101357.13;;;15.96;100.00
75646;BME280;64237;52.438;13.240;2023-08-12T04:34:03;101348.56;;;16.08;100.00
75646;BME280;64237;52.438;13.240;2023-08-12T04:36:29;101340.25;;;16.13;100.00
75646;BME280;64237;52.438;13.240;2023-08-12T04:38:54;101343.34;;;16.17;100.00
75646;BME280;64237;52.438;13.240;2023-08-12T04:41:20;101335.31;;;16.25;100.00
75646;BME280;64237;52.438;13.240;2023-08-12T04:43:45;101336.47;;;16.29;100.00
75646;BME280;64237;52.438;13.240;2023-08-12T04:46:10;101344.38;;;16.37;100.00
75646;BME280;64237;52.438;13.240;2023-08-12T04:48:36;101342.47;;;16.48;100.00
75646;BME280;64237;52.438;13.240;2023-08-12T04:51:01;101343.94;;;16.56;100.00
75646;BME280;64237;52.438;13.240;2023-08-12T04:53:28;101331.47;;;16.63;100.00
75646;BME280;64237;52.438;13.240;2023-08-12T04:55:55;101334.00;;;16.65;100.00
75646;BME280;64237;52.438;13.240;2023-08-12T04:58:20;101329.03;;;16.77;100.00
75646;BME280;64237;52.438;13.240;2023-08-12T05:00:45;101327.41;;;16.86;100.00
75646;BME280;64237;52.438;13.240;2023-08-12T05:03:11;101330.81;;;16.98;100.00
75646;BME280;64237;52.438;13.240;2023-08-12T05:05:36;101325.28;;;17.08;99.09
75646;BME280;64237;52.438;13.240;2023-08-12T05:08:02;101323.63;;;17.18;99.10
75646;BME280;64237;52.438;13.240;2023-08-12T05:10:27;101324.25;;;17.25;99.85
75646;BME280;64237;52.438;13.240;2023-08-12T05:12:52;101325.41;;;17.39;99.25
75646;BME280;64237;52.438;13.240;2023-08-12T05:15:19;101322.63;;;17.54;95.28
75646;BME280;64237;52.438;13.240;2023-08-12T05:17:45;101325.53;;;17.69;94.26
75646;BME280;64237;52.438;13.240;2023-08-12T05:20:10;101326.13;;;17.87;91.34
75646;BME280;64237;52.438;13.240;2023-08-12T05:22:36;101318.88;;;17.96;91.17
75646;BME280;64237;52.438;13.240;2023-08-12T05:25:01;101317.16;;;18.05;92.49
75646;BME280;64237;52.438;13.240;2023-08-12T05:27:26;101308.22;;;18.13;91.84
75646;BME280;64237;52.438;13.240;2023-08-12T05:29:52;101319.41;;;18.33;89.39
75646;BME280;64237;52.438;13.240;2023-08-12T05:32:17;101319.41;;;18.33;93.20
75646;BME280;64237;52.438;13.240;2023-08-12T05:34:42;101308.75;;;18.40;89.21
75646;BME280;64237;52.438;13.240;2023-08-12T05:37:08;101313.22;;;18.41;91.28
75646;BME280;64237;52.438;13.240;2023-08-12T05:39:34;101307.34;;;18.53;89.09
75646;BME280;64237;52.438;13.240;2023-08-12T05:41:59;101310.44;;;18.52;89.70
75646;BME280;64237;52.438;13.240;2023-08-12T05:44:24;101313.22;;;18.57;88.92
75646;BME280;64237;52.438;13.240;2023-08-12T05:46:50;101313.78;;;18.59;89.71
75646;BME280;64237;52.438;13.240;2023-08-12T05:49:15;101309.88;;;18.65;89.40
75646;BME280;64237;52.438;13.240;2023-08-12T05:51:40;101310.97;;;18.69;89.28
75646;BME280;64237;52.438;13.240;2023-08-12T05:54:06;101306.22;;;18.69;91.07
75646;BME280;64237;52.438;13.240;2023-08-12T05:56:32;101315.47;;;18.75;90.60
75646;BME280;64237;52.438;13.240;2023-08-12T05:58:57;101323.88;;;18.80;89.87
75646;BME280;64237;52.438;13.240;2023-08-12T06:01:22;101319.34;;;18.84;91.20
75646;BME280;64237;52.438;13.240;2023-08-12T06:03:48;101310.66;;;18.91;88.82
75646;BME280;64237;52.438;13.240;2023-08-12T06:06:13;101326.06;;;18.98;89.43
75646;BME280;64237;52.438;13.240;2023-08-12T06:08:38;101319.03;;;19.01;88.71
75646;BME280;64237;52.438;13.240;2023-08-12T06:11:04;101317.03;;;19.06;88.37
75646;BME280;64237;52.438;13.240;2023-08-12T06:13:29;101319.25;;;19.14;88.29
75646;BME280;64237;52.438;13.240;2023-08-12T06:15:55;101323.19;;;19.18;87.66
75646;BME280;64237;52.438;13.240;2023-08-12T06:18:20;101313.63;;;19.25;88.90
75646;BME280;64237;52.438;13.240;2023-08-12T06:20:45;101319.47;;;19.28;88.07
75646;BME280;64237;52.438;13.240;2023-08-12T06:23:11;101322.00;;;19.30;89.89
75646;BME280;64237;52.438;13.240;2023-08-12T06:25:36;101315.81;;;19.33;88.37
75646;BME280;64237;52.438;13.240;2023-08-12T06:28:02;101313.00;;;19.38;89.01
75646;BME280;64237;52.438;13.240;2023-08-12T06:30:29;101307.91;;;19.45;87.60
75646;BME280;64237;52.438;13.240;2023-08-12T06:32:55;101310.16;;;19.43;88.56
75646;BME280;64237;52.438;13.240;2023-08-12T06:35:20;101310.16;;;19.43;89.67
75646;BME280;64237;52.438;13.240;2023-08-12T06:37:45;101316.91;;;19.42;90.17
75646;BME280;64237;52.438;13.240;2023-08-12T06:40:11;101317.19;;;19.40;90.59
75646;BME280;64237;52.438;13.240;2023-08-12T06:42:36;101316.91;;;19.37;91.36
75646;BME280;64237;52.438;13.240;2023-08-12T06:45:01;101311.31;;;19.37;90.69
75646;BME280;64237;52.438;13.240;2023-08-12T06:47:29;101305.69;;;19.37;90.58
75646;BME280;64237;52.438;13.240;2023-08-12T06:49:55;101309.59;;;19.41;89.98
75646;BME280;64237;52.438;13.240;2023-08-12T06:52:20;101304.56;;;19.43;91.73
75646;BME280;64237;52.438;13.240;2023-08-12T06:54:45;101299.75;;;19.48;89.63
75646;BME280;64237;52.438;13.240;2023-08-12T06:57:11;101300.00;;;19.57;89.60
75646;BME280;64237;52.438;13.240;2023-08-12T06:59:37;101290.97;;;19.65;89.08
75646;BME280;64237;52.438;13.240;2023-08-12T07:02:02;101293.16;;;19.73;88.64
75646;BME280;64237;52.438;13.240;2023-08-12T07:04:28;101295.88;;;19.89;88.67
75646;BME280;64237;52.438;13.240;2023-08-12T07:06:53;101284.41;;;20.14;87.20
75646;BME280;64237;52.438;13.240;2023-08-12T07:09:18;101283.56;;;20.47;85.87
75646;BME280;64237;52.438;13.240;2023-08-12T07:11:44;101278.28;;;20.70;83.59
75646;BME280;64237;52.438;13.240;2023-08-12T07:14:09;101279.25;;;20.84;83.10
75646;BME280;64237;52.438;13.240;2023-08-12T07:16:35;101286.53;;;20.85;81.81
75646;BME280;64237;52.438;13.240;2023-08-12T07:19:00;101288.72;;;20.93;84.02
75646;BME280;64237;52.438;13.240;2023-08-12T07:21:26;101278.25;;;20.99;82.18
75646;BME280;64237;52.438;13.240;2023-08-12T07:23:51;101279.59;;;21.01;85.02
75646;BME280;64237;52.438;13.240;2023-08-12T07:26:16;101281.25;;;21.02;82.31
75646;BME280;64237;52.438;13.240;2023-08-12T07:28:42;101287.38;;;21.09;82.66
75646;BME280;64237;52.438;13.240;2023-08-12T07:31:07;101291.22;;;21.18;81.27
75646;BME280;64237;52.438;13.240;2023-08-12T07:33:32;101281.50;;;21.30;83.12
75646;BME280;64237;52.438;13.240;2023-08-12T07:35:58;101275.75;;;21.40;81.27
75646;BME280;64237;52.438;13.240;2023-08-12T07:38:23;101270.56;;;21.47;81.77
75646;BME280;64237;52.438;13.240;2023-08-12T07:40:49;101276.06;;;21.57;82.84
75646;BME280;64237;52.438;13.240;2023-08-12T07:43:15;101278.28;;;21.60;79.98
75646;BME280;64237;52.438;13.240;2023-08-12T07:45:40;101271.50;;;21.61;80.31
75646;BME280;64237;52.438;13.240;2023-08-12T07:48:05;101278.81;;;21.62;78.38
75646;BME280;64237;52.438;13.240;2023-08-12T07:50:31;101279.34;;;21.64;78.97
75646;BME280;64237;52.438;13.240;2023-08-12T07:52:56;101277.56;;;21.68;79.06
75646;BME280;64237;52.438;13.240;2023-08-12T07:55:21;101277.56;;;21.68;82.87
75646;BME280;64237;52.438;13.240;2023-08-12T07:57:47;101279.84;;;21.66;83.18
75646;BME280;64237;52.438;13.240;2023-08-12T08:00:12;101280.94;;;21.70;80.97
75646;BME280;64237;52.438;13.240;2023-08-12T08:02:38;101279.72;;;21.76;80.85
75646;BME280;64237;52.438;13.240;2023-08-12T08:05:04;101275.75;;;21.77;81.11
75646;BME280;64237;52.438;13.240;2023-08-12T08:07:30;101272.16;;;21.72;82.77
75646;BME280;64237;52.438;13.240;2023-08-12T08:09:55;101264.94;;;21.66;80.33
75646;BME280;64237;52.438;13.240;2023-08-12T08:12:20;101267.31;;;21.59;80.67
75646;BME280;64237;52.438;13.240;2023-08-12T08:14:46;101272.84;;;21.45;84.42
75646;BME280;64237;52.438;13.240;2023-08-12T08:17:11;101273.53;;;21.37;83.86
75646;BME280;64237;52.438;13.240;2023-08-12T08:19:37;101266.34;;;21.26;85.55
75646;BME280;64237;52.438;13.240;2023-08-12T08:22:02;101269.28;;;21.20;83.56
75646;BME280;64237;52.438;13.240;2023-08-12T08:24:28;101276.97;;;21.10;86.30
75646;BME280;64237;52.438;13.240;2023-08-12T08:26:53;101273.13;;;21.01;88.47
75646;BME280;64237;52.438;13.240;2023-08-12T08:29:19;101274.09;;;20.91;90.74
75646;BME280;64237;52.438;13.240;2023-08-12T08:31:44;101273.00;;;20.87;92.47
75646;BME280;64237;52.438;13.240;2023-08-12T08:34:09;101281.50;;;20.82;92.83
75646;BME280;64237;52.438;13.240;2023-08-12T08:36:35;101276.47;;;20.79;94.56
75646;BME280;64237;52.438;13.240;2023-08-12T08:39:00;101274.84;;;20.78;95.29
75646;BME280;64237;52.438;13.240;2023-08-12T08:41:27;101283.28;;;20.78;97.58
75646;BME280;64237;52.438;13.240;2023-08-12T08:43:56;101283.19;;;20.83;96.39
75646;BME280;64237;52.438;13.240;2023-08-12T08:46:26;101277.25;;;20.84;99.62
75646;BME280;64237;52.438;13.240;2023-08-12T08:48:52;101264.28;;;20.88;100.00
75646;BME280;64237;52.438;13.240;2023-08-12T08:51:19;101264.47;;;20.97;100.00
75646;BME280;64237;52.438;13.240;2023-08-12T08:53:45;101262.94;;;21.05;100.00
75646;BME280;64237;52.438;13.240;2023-08-12T08:56:11;101255.88;;;21.07;100.00
75646;BME280;64237;52.438;13.240;2023-08-12T08:58:39;101260.31;;;21.13;100.00
75646;BME280;64237;52.438;13.240;2023-08-12T09:01:06;101254.94;;;21.17;100.00
75646;BME280;64237;52.438;13.240;2023-08-12T09:03:34;101248.09;;;21.23;100.00
75646;BME280;64237;52.438;13.240;2023-08-12T09:06:00;101259.81;;;21.30;99.54
75646;BME280;64237;52.438;13.240;2023-08-12T09:08:27;101270.44;;;21.38;100.00
75646;BME280;64237;52.438;13.240;2023-08-12T09:10:54;101266.91;;;21.46;91.49
75646;BME280;64237;52.438;13.240;2023-08-12T09:13:20;101269.22;;;21.63;95.26
75646;BME280;64237;52.438;13.240;2023-08-12T09:15:45;101262.44;;;21.83;91.31
75646;BME280;64237;52.438;13.240;2023-08-12T09:18:11;101262.44;;;22.02;93.06
75646;BME280;64237;52.438;13.240;2023-08-12T09:20:36;101254.00;;;22.15;92.00
75646;BME280;64237;52.438;13.240;2023-08-12T09:23:02;101260.31;;;22.26;89.19
75646;BME280;64237;52.438;13.240;2023-08-12T09:25:29;101265.34;;;22.29;88.18
75646;BME280;64237;52.438;13.240;2023-08-12T09:27:55;101255.72;;;22.30;86.74
75646;BME280;64237;52.438;13.240;2023-08-12T09:30:21;101257.50;;;22.26;87.39
75646;BME280;64237;52.438;13.240;2023-08-12T09:33:08;101253.63;;;22.22;89.43
75646;BME280;64237;52.438;13.240;2023-08-12T09:35:38;101256.44;;;22.22;89.07
75646;BME280;64237;52.438;13.240;2023-08-12T09:38:06;101257.19;;;22.28;88.08
75646;BME280;64237;52.438;13.240;2023-08-12T09:40:34;101260.56;;;22.43;84.85
75646;BME280;64237;52.438;13.240;2023-08-12T09:43:00;101261.94;;;22.60;84.39
75646;BME280;64237;52.438;13.240;2023-08-12T09:45:25;101262.09;;;22.82;87.65
75646;BME280;64237;52.438;13.240;2023-08-12T09:47:55;101264.59;;;22.97;82.44
75646;BME280;64237;52.438;13.240;2023-08-12T09:50:22;101260.44;;;23.08;84.46
75646;BME280;64237;52.438;13.240;2023-08-12T09:52:47;101258.13;;;23.10;80.92
75646;BME280;64237;52.438;13.240;2023-08-12T09:55:16;101254.56;;;23.05;82.28
75646;BME280;64237;52.438;13.240;2023-08-12T09:57:42;101249.97;;;22.95;84.74
75646;BME280;64237;52.438;13.240;2023-08-12T10:00:10;101255.75;;;22.90;84.38
75646;BME280;64237;52.438;13.240;2023-08-12T10:02:41;101254.06;;;22.89;81.96
75646;BME280;64237;52.438;13.240;2023-08-12T10:05:09;101230.22;;;22.81;86.70
75646;BME280;64237;52.438;13.240;2023-08-12T10:07:36;101230.13;;;22.86;83.28
75646;BME280;64237;52.438;13.240;2023-08-12T10:10:03;101224.56;;;22.95;82.18
75646;BME280;64237;52.438;13.240;2023-08-12T10:12:30;101229.69;;;23.07;82.76
75646;BME280;64237;52.438;13.240;2023-08-12T10:14:56;101223.31;;;23.15;83.71
75646;BME280;64237;52.438;13.240;2023-08-12T10:17:22;101219.81;;;23.32;82.18
75646;BME280;64237;52.438;13.240;2023-08-12T10:19:57;101211.88;;;23.34;84.68
75646;BME280;64237;52.438;13.240;2023-08-12T10:22:26;101218.56;;;23.38;85.27
75646;BME280;64237;52.438;13.240;2023-08-12T10:24:51;101221.25;;;23.43;89.58
75646;BME280;64237;52.438;13.240;2023-08-12T10:27:17;101209.75;;;23.53;86.60
75646;BME280;64237;52.438;13.240;2023-08-12T10:29:43;101207.50;;;23.64;80.25
75646;BME280;64237;52.438;13.240;2023-08-12T10:32:09;101188.56;;;23.86;82.71
75646;BME280;64237;52.438;13.240;2023-08-12T10:34:34;101197.97;;;24.04;84.59
75646;BME280;64237;52.438;13.240;2023-08-12T10:37:03;101194.56;;;24.16;85.11
75646;BME280;64237;52.438;13.240;2023-08-12T10:39:31;101212.31;;;24.30;80.48
75646;BME280;64237;52.438;13.240;2023-08-12T10:41:57;101232.50;;;24.37;81.53
75646;BME280;64237;52.438;13.240;2023-08-12T10:44:27;101235.03;;;24.47;79.90
75646;BME280;64237;52.438;13.240;2023-08-12T10:46:53;101223.91;;;24.51;77.03
75646;BME280;64237;52.438;13.240;2023-08-12T10:49:20;101216.63;;;24.58;76.84
75646;BME280;64237;52.438;13.240;2023-08-12T10:54:20;101200.31;;;24.55;77.82
75646;BME280;64237;52.438;13.240;2023-08-12T10:57:04;101195.78;;;24.54;78.53
75646;BME280;64237;52.438;13.240;2023-08-12T10:59:51;101202.66;;;24.62;76.33
75646;BME280;64237;52.438;13.240;2023-08-12T11:02:28;101195.41;;;24.78;78.05
75646;BME280;64237;52.438;13.240;2023-08-12T11:04:57;101201.13;;;24.96;74.99
75646;BME280;64237;52.438;13.240;2023-08-12T11:07:33;101197.03;;;25.10;74.15
75646;BME280;64237;52.438;13.240;2023-08-12T11:10:04;101197.69;;;25.07;70.43
75646;BME280;64237;52.438;13.240;2023-08-12T11:12:33;101189.25;;;24.85;71.40
75646;BME280;64237;52.438;13.240;2023-08-12T11:14:59;101199.69;;;24.67;72.95
75646;BME280;64237;52.438;13.240;2023-08-12T11:17:40;101207.94;;;24.46;73.40
75646;BME280;64237;52.438;13.240;2023-08-12T11:20:10;101221.31;;;24.32;76.51
75646;BME280;64237;52.438;13.240;2023-08-12T11:22:38;101214.06;;;24.17;75.44
75646;BME280;64237;52.438;13.240;2023-08-12T11:25:08;101215.31;;;24.03;77.14
75646;BME280;64237;52.438;13.240;2023-08-12T11:27:54;101225.06;;;23.97;76.39
75646;BME280;64237;52.438;13.240;2023-08-12T11:30:20;101233.78;;;23.86;75.22
75646;BME280;64237;52.438;13.240;2023-08-12T11:32:48;101230.97;;;23.86;76.39
75646;BME280;64237;52.438;13.240;2023-08-12T11:35:16;101234.88;;;23.77;76.61
75646;BME280;64237;52.438;13.240;2023-08-12T11:37:44;101226.59;;;23.80;76.31
75646;BME280;64237;52.438;13.240;2023-08-12T11:40:11;101229.47;;;23.89;77.50
75646;BME280;64237;52.438;13.240;2023-08-12T11:42:40;101223.00;;;23.88;76.79
75646;BME280;64237;52.438;13.240;2023-08-12T11:45:06;101220.28;;;23.83;77.35
75646;BME280;64237;52.438;13.240;2023-08-12T11:47:34;101234.94;;;23.85;80.25
75646;BME280;64237;52.438;13.240;2023-08-12T11:50:02;101247.28;;;23.89;78.54
75646;BME280;64237;52.438;13.240;2023-08-12T11:52:29;101241.63;;;23.89;78.57
75646;BME280;64237;52.438;13.240;2023-08-12T11:54:55;101234.31;;;23.88;79.70
75646;BME280;64237;52.438;13.240;2023-08-12T11:57:22;101231.03;;;23.73;82.29
75646;BME280;64237;52.438;13.240;2023-08-12T11:59:47;101234.41;;;23.61;82.60
75646;BME280;64237;52.438;13.240;2023-08-12T12:02:13;101233.28;;;23.48;86.30
75646;BME280;64237;52.438;13.240;2023-08-12T12:04:41;101216.22;;;23.40;87.99
75646;BME280;64237;52.438;13.240;2023-08-12T12:07:20;101223.16;;;23.34;88.15
75646;BME280;64237;52.438;13.240;2023-08-12T12:09:46;101218.16;;;23.31;86.55
75646;BME280;64237;52.438;13.240;2023-08-12T12:12:12;101217.09;;;23.27;84.77
75646;BME280;64237;52.438;13.240;2023-08-12T12:14:37;101211.03;;;23.19;85.93
75646;BME280;64237;52.438;13.240;2023-08-12T12:17:07;101196.41;;;23.17;84.09
75646;BME280;64237;52.438;13.240;2023-08-12T12:19:34;101179.72;;;23.07;85.65
75646;BME280;64237;52.438;13.240;2023-08-12T12:22:02;101146.06;;;22.97;89.82
75646;BME280;64237;52.438;13.240;2023-08-12T12:24:29;101134.13;;;23.00;87.01
75646;BME280;64237;52.438;13.240;2023-08-12T12:26:56;101140.13;;;23.21;89.18
75646;BME280;64237;52.438;13.240;2023-08-12T12:29:21;101130.22;;;23.46;87.92
75646;BME280;64237;52.438;13.240;2023-08-12T12:31:47;101132.94;;;23.73;82.42
75646;BME280;64237;52.438;13.240;2023-08-12T12:34:12;101107.34;;;24.01;81.99
75646;BME280;64237;52.438;13.240;2023-08-12T12:36:39;101108.88;;;24.38;78.03